Flint, Michigan
Current Conditions -  °F | °C
As of 4:53 PM on Monday 26 Jan 2015 (Local Time) from KFNT Reporting Station
Clear Clear  
Wind Chill: 14°   Ceiling: Unl
Heat Index: 24°   Visibility: 10mi
Dew Point:   Wind: 9mph
Humidity: 53%   Direction: 60°ENE
Pressure: 29.91"   Gusts: NA
Location:  43.01°N, 83.68°W
Report Text: KFNT 262153Z 06008KT 10SM CLR M04/M13 A2991 RMK AO2 SLP144 T10441128
Loading
Personal Weather Stations






























Interactive Weather Map New forecast layout! Learn more

10-Day Weather Forecast

Advertisements
Track Severe Weather on mobile